sensor_id;sensor_type;location;lat;lon;timestamp;P1;durP1;ratioP1;P2;durP2;ratioP2
66824;SDS011;53726;54.322;10.134;2023-09-19T00:00:47;7.50;;;2.85;;
66824;SDS011;53726;54.322;10.134;2023-09-19T00:03:13;8.43;;;3.05;;
66824;SDS011;53726;54.322;10.134;2023-09-19T00:05:39;5.85;;;2.70;;
66824;SDS011;53726;54.322;10.134;2023-09-19T00:08:10;6.53;;;2.95;;
66824;SDS011;53726;54.322;10.134;2023-09-19T00:10:39;6.95;;;2.60;;
66824;SDS011;53726;54.322;10.134;2023-09-19T00:13:07;4.10;;;2.38;;
66824;SDS011;53726;54.322;10.134;2023-09-19T00:15:46;6.68;;;3.17;;
66824;SDS011;53726;54.322;10.134;2023-09-19T00:18:17;6.25;;;2.47;;
66824;SDS011;53726;54.322;10.134;2023-09-19T00:21:00;6.63;;;2.53;;
66824;SDS011;53726;54.322;10.134;2023-09-19T00:23:29;5.28;;;2.63;;
66824;SDS011;53726;54.322;10.134;2023-09-19T00:25:59;5.47;;;3.00;;
66824;SDS011;53726;54.322;10.134;2023-09-19T00:28:27;7.20;;;2.58;;
66824;SDS011;53726;54.322;10.134;2023-09-19T00:30:52;6.30;;;2.42;;
66824;SDS011;53726;54.322;10.134;2023-09-19T00:33:21;6.53;;;2.47;;
66824;SDS011;53726;54.322;10.134;2023-09-19T00:35:49;4.38;;;2.38;;
66824;SDS011;53726;54.322;10.134;2023-09-19T00:38:16;6.70;;;2.40;;
66824;SDS011;53726;54.322;10.134;2023-09-19T00:43:20;8.93;;;2.65;;
66824;SDS011;53726;54.322;10.134;2023-09-19T00:45:55;5.90;;;2.35;;
66824;SDS011;53726;54.322;10.134;2023-09-19T00:48:23;7.70;;;2.22;;
66824;SDS011;53726;54.322;10.134;2023-09-19T00:50:53;5.68;;;2.60;;
66824;SDS011;53726;54.322;10.134;2023-09-19T00:53:23;5.13;;;2.78;;
66824;SDS011;53726;54.322;10.134;2023-09-19T00:55:50;6.13;;;2.20;;
66824;SDS011;53726;54.322;10.134;2023-09-19T00:58:18;7.43;;;2.83;;
66824;SDS011;53726;54.322;10.134;2023-09-19T01:00:47;10.73;;;2.75;;
66824;SDS011;53726;54.322;10.134;2023-09-19T01:03:14;4.70;;;2.55;;
66824;SDS011;53726;54.322;10.134;2023-09-19T01:05:43;14.68;;;2.60;;
66824;SDS011;53726;54.322;10.134;2023-09-19T01:08:10;6.90;;;2.58;;
66824;SDS011;53726;54.322;10.134;2023-09-19T01:10:38;3.53;;;2.25;;
66824;SDS011;53726;54.322;10.134;2023-09-19T01:19:01;5.43;;;2.60;;
66824;SDS011;53726;54.322;10.134;2023-09-19T01:24:54;3.67;;;2.10;;
66824;SDS011;53726;54.322;10.134;2023-09-19T01:30:30;4.05;;;2.42;;
66824;SDS011;53726;54.322;10.134;2023-09-19T01:32:58;3.85;;;2.40;;
66824;SDS011;53726;54.322;10.134;2023-09-19T01:35:25;4.30;;;2.28;;
66824;SDS011;53726;54.322;10.134;2023-09-19T01:37:53;6.38;;;2.95;;
66824;SDS011;53726;54.322;10.134;2023-09-19T01:40:20;4.00;;;2.20;;
66824;SDS011;53726;54.322;10.134;2023-09-19T01:51:32;6.60;;;2.20;;
66824;SDS011;53726;54.322;10.134;2023-09-19T01:54:22;4.22;;;2.10;;
66824;SDS011;53726;54.322;10.134;2023-09-19T02:00:06;4.22;;;2.10;;
66824;SDS011;53726;54.322;10.134;2023-09-19T02:02:40;3.97;;;2.10;;
66824;SDS011;53726;54.322;10.134;2023-09-19T02:05:10;4.85;;;2.30;;
66824;SDS011;53726;54.322;10.134;2023-09-19T02:07:38;9.23;;;2.70;;
66824;SDS011;53726;54.322;10.134;2023-09-19T02:10:06;5.15;;;2.33;;
66824;SDS011;53726;54.322;10.134;2023-09-19T02:12:38;5.32;;;2.35;;
66824;SDS011;53726;54.322;10.134;2023-09-19T02:15:05;3.75;;;1.92;;
66824;SDS011;53726;54.322;10.134;2023-09-19T02:17:33;4.32;;;1.90;;
66824;SDS011;53726;54.322;10.134;2023-09-19T02:20:00;3.85;;;2.10;;
66824;SDS011;53726;54.322;10.134;2023-09-19T02:22:36;5.20;;;2.05;;
66824;SDS011;53726;54.322;10.134;2023-09-19T02:25:04;5.40;;;2.08;;
66824;SDS011;53726;54.322;10.134;2023-09-19T02:27:32;5.47;;;2.30;;
66824;SDS011;53726;54.322;10.134;2023-09-19T02:29:59;4.78;;;2.28;;
66824;SDS011;53726;54.322;10.134;2023-09-19T02:32:29;12.98;;;2.17;;
66824;SDS011;53726;54.322;10.134;2023-09-19T02:35:02;5.57;;;2.17;;
66824;SDS011;53726;54.322;10.134;2023-09-19T02:37:36;3.60;;;2.22;;
66824;SDS011;53726;54.322;10.134;2023-09-19T02:40:04;11.38;;;2.30;;
66824;SDS011;53726;54.322;10.134;2023-09-19T02:42:43;3.92;;;2.10;;
66824;SDS011;53726;54.322;10.134;2023-09-19T02:45:18;7.95;;;1.92;;
66824;SDS011;53726;54.322;10.134;2023-09-19T02:47:46;3.95;;;2.13;;
66824;SDS011;53726;54.322;10.134;2023-09-19T02:50:21;8.95;;;2.40;;
66824;SDS011;53726;54.322;10.134;2023-09-19T02:52:49;6.40;;;2.15;;
66824;SDS011;53726;54.322;10.134;2023-09-19T02:55:16;5.50;;;2.20;;
66824;SDS011;53726;54.322;10.134;2023-09-19T02:57:50;4.28;;;2.00;;
66824;SDS011;53726;54.322;10.134;2023-09-19T03:00:20;5.25;;;2.10;;
66824;SDS011;53726;54.322;10.134;2023-09-19T03:02:55;6.78;;;2.20;;
66824;SDS011;53726;54.322;10.134;2023-09-19T03:05:31;4.78;;;2.50;;
66824;SDS011;53726;54.322;10.134;2023-09-19T03:07:59;2.92;;;1.85;;
66824;SDS011;53726;54.322;10.134;2023-09-19T03:10:27;6.07;;;2.28;;
66824;SDS011;53726;54.322;10.134;2023-09-19T03:12:54;4.57;;;1.88;;
66824;SDS011;53726;54.322;10.134;2023-09-19T03:15:21;4.82;;;1.95;;
66824;SDS011;53726;54.322;10.134;2023-09-19T03:17:47;3.75;;;1.83;;
66824;SDS011;53726;54.322;10.134;2023-09-19T03:20:15;5.43;;;2.03;;
66824;SDS011;53726;54.322;10.134;2023-09-19T03:22:45;3.70;;;2.13;;
66824;SDS011;53726;54.322;10.134;2023-09-19T03:25:19;5.43;;;2.22;;
66824;SDS011;53726;54.322;10.134;2023-09-19T03:27:48;3.45;;;2.10;;
66824;SDS011;53726;54.322;10.134;2023-09-19T03:30:16;8.30;;;3.00;;
66824;SDS011;53726;54.322;10.134;2023-09-19T03:32:46;6.40;;;1.70;;
66824;SDS011;53726;54.322;10.134;2023-09-19T03:35:20;3.38;;;1.75;;
66824;SDS011;53726;54.322;10.134;2023-09-19T03:37:48;7.75;;;2.38;;
66824;SDS011;53726;54.322;10.134;2023-09-19T03:40:17;5.68;;;2.00;;
66824;SDS011;53726;54.322;10.134;2023-09-19T03:42:45;5.25;;;2.13;;
66824;SDS011;53726;54.322;10.134;2023-09-19T03:45:13;4.10;;;1.95;;
66824;SDS011;53726;54.322;10.134;2023-09-19T03:47:42;5.13;;;1.98;;
66824;SDS011;53726;54.322;10.134;2023-09-19T03:50:12;3.70;;;2.00;;
66824;SDS011;53726;54.322;10.134;2023-09-19T03:52:43;5.07;;;2.00;;
66824;SDS011;53726;54.322;10.134;2023-09-19T03:55:22;4.72;;;1.85;;
66824;SDS011;53726;54.322;10.134;2023-09-19T03:57:49;6.18;;;1.92;;
66824;SDS011;53726;54.322;10.134;2023-09-19T04:00:24;5.03;;;1.90;;
66824;SDS011;53726;54.322;10.134;2023-09-19T04:02:53;6.00;;;1.98;;
66824;SDS011;53726;54.322;10.134;2023-09-19T04:05:21;3.28;;;1.98;;
66824;SDS011;53726;54.322;10.134;2023-09-19T04:07:49;6.50;;;2.10;;
66824;SDS011;53726;54.322;10.134;2023-09-19T04:10:17;6.35;;;1.95;;
66824;SDS011;53726;54.322;10.134;2023-09-19T04:12:54;3.50;;;1.70;;
66824;SDS011;53726;54.322;10.134;2023-09-19T04:15:23;3.13;;;1.85;;
66824;SDS011;53726;54.322;10.134;2023-09-19T04:17:50;6.28;;;1.80;;
66824;SDS011;53726;54.322;10.134;2023-09-19T04:20:24;4.57;;;1.80;;
66824;SDS011;53726;54.322;10.134;2023-09-19T04:22:51;5.47;;;1.95;;
66824;SDS011;53726;54.322;10.134;2023-09-19T04:25:17;7.97;;;2.00;;
66824;SDS011;53726;54.322;10.134;2023-09-19T04:27:45;4.05;;;1.80;;
66824;SDS011;53726;54.322;10.134;2023-09-19T04:30:11;2.63;;;1.63;;
66824;SDS011;53726;54.322;10.134;2023-09-19T04:32:41;5.15;;;1.77;;
66824;SDS011;53726;54.322;10.134;2023-09-19T04:35:07;6.20;;;1.95;;
66824;SDS011;53726;54.322;10.134;2023-09-19T04:37:40;9.70;;;1.88;;
66824;SDS011;53726;54.322;10.134;2023-09-19T04:40:09;4.72;;;1.90;;
66824;SDS011;53726;54.322;10.134;2023-09-19T04:42:44;4.95;;;1.85;;
66824;SDS011;53726;54.322;10.134;2023-09-19T04:45:11;3.13;;;1.70;;
66824;SDS011;53726;54.322;10.134;2023-09-19T04:47:37;10.20;;;1.77;;
66824;SDS011;53726;54.322;10.134;2023-09-19T04:50:21;6.70;;;2.20;;
66824;SDS011;53726;54.322;10.134;2023-09-19T04:52:51;9.27;;;2.17;;
66824;SDS011;53726;54.322;10.134;2023-09-19T04:55:20;8.73;;;1.95;;
66824;SDS011;53726;54.322;10.134;2023-09-19T04:57:49;12.38;;;1.70;;
66824;SDS011;53726;54.322;10.134;2023-09-19T05:00:16;6.80;;;1.80;;
66824;SDS011;53726;54.322;10.134;2023-09-19T05:02:44;5.28;;;1.85;;
66824;SDS011;53726;54.322;10.134;2023-09-19T05:05:10;5.60;;;2.20;;
66824;SDS011;53726;54.322;10.134;2023-09-19T05:07:44;3.67;;;1.75;;
66824;SDS011;53726;54.322;10.134;2023-09-19T05:10:11;11.15;;;1.95;;
66824;SDS011;53726;54.322;10.134;2023-09-19T05:12:39;6.68;;;2.03;;
66824;SDS011;53726;54.322;10.134;2023-09-19T05:15:06;7.45;;;1.77;;
66824;SDS011;53726;54.322;10.134;2023-09-19T05:17:33;10.32;;;2.20;;
66824;SDS011;53726;54.322;10.134;2023-09-19T05:20:00;8.60;;;1.80;;
66824;SDS011;53726;54.322;10.134;2023-09-19T05:22:30;7.55;;;2.10;;
66824;SDS011;53726;54.322;10.134;2023-09-19T05:24:57;4.82;;;1.58;;
66824;SDS011;53726;54.322;10.134;2023-09-19T05:27:30;6.65;;;2.08;;
66824;SDS011;53726;54.322;10.134;2023-09-19T05:30:04;8.00;;;1.75;;
66824;SDS011;53726;54.322;10.134;2023-09-19T05:32:30;8.05;;;2.08;;
66824;SDS011;53726;54.322;10.134;2023-09-19T05:34:58;6.15;;;1.90;;
66824;SDS011;53726;54.322;10.134;2023-09-19T05:37:26;9.95;;;2.08;;
66824;SDS011;53726;54.322;10.134;2023-09-19T05:39:55;19.55;;;2.65;;
66824;SDS011;53726;54.322;10.134;2023-09-19T05:42:23;39.22;;;3.30;;
66824;SDS011;53726;54.322;10.134;2023-09-19T05:44:50;20.80;;;2.90;;
66824;SDS011;53726;54.322;10.134;2023-09-19T05:47:16;17.65;;;3.17;;
66824;SDS011;53726;54.322;10.134;2023-09-19T05:49:45;41.45;;;4.78;;
66824;SDS011;53726;54.322;10.134;2023-09-19T05:52:14;35.03;;;3.60;;
66824;SDS011;53726;54.322;10.134;2023-09-19T05:54:43;62.83;;;5.55;;
66824;SDS011;53726;54.322;10.134;2023-09-19T05:57:12;23.73;;;3.17;;
66824;SDS011;53726;54.322;10.134;2023-09-19T05:59:40;26.90;;;4.60;;
66824;SDS011;53726;54.322;10.134;2023-09-19T06:02:07;29.50;;;4.00;;
66824;SDS011;53726;54.322;10.134;2023-09-19T06:04:34;29.05;;;3.70;;
66824;SDS011;53726;54.322;10.134;2023-09-19T06:07:00;18.98;;;4.57;;
66824;SDS011;53726;54.322;10.134;2023-09-19T06:09:30;19.60;;;3.10;;
66824;SDS011;53726;54.322;10.134;2023-09-19T06:11:57;20.05;;;2.65;;
66824;SDS011;53726;54.322;10.134;2023-09-19T06:14:23;18.92;;;2.67;;
66824;SDS011;53726;54.322;10.134;2023-09-19T06:16:49;20.42;;;2.53;;
66824;SDS011;53726;54.322;10.134;2023-09-19T06:19:15;25.90;;;4.35;;
66824;SDS011;53726;54.322;10.134;2023-09-19T06:21:41;20.33;;;3.28;;
66824;SDS011;53726;54.322;10.134;2023-09-19T06:24:07;24.23;;;4.22;;
66824;SDS011;53726;54.322;10.134;2023-09-19T06:26:33;20.02;;;2.55;;
66824;SDS011;53726;54.322;10.134;2023-09-19T06:28:58;15.75;;;2.88;;
66824;SDS011;53726;54.322;10.134;2023-09-19T06:31:25;14.93;;;2.55;;
66824;SDS011;53726;54.322;10.134;2023-09-19T06:33:51;17.58;;;2.97;;
66824;SDS011;53726;54.322;10.134;2023-09-19T06:36:17;16.90;;;2.63;;
66824;SDS011;53726;54.322;10.134;2023-09-19T06:38:44;18.92;;;2.65;;
66824;SDS011;53726;54.322;10.134;2023-09-19T06:41:10;13.35;;;2.33;;
66824;SDS011;53726;54.322;10.134;2023-09-19T06:43:36;14.52;;;2.22;;
66824;SDS011;53726;54.322;10.134;2023-09-19T06:46:02;16.42;;;2.88;;
66824;SDS011;53726;54.322;10.134;2023-09-19T06:48:27;27.35;;;2.83;;
66824;SDS011;53726;54.322;10.134;2023-09-19T06:50:54;14.18;;;2.30;;
66824;SDS011;53726;54.322;10.134;2023-09-19T06:53:21;14.50;;;2.95;;
66824;SDS011;53726;54.322;10.134;2023-09-19T06:55:49;17.45;;;2.80;;
66824;SDS011;53726;54.322;10.134;2023-09-19T06:58:15;7.82;;;2.10;;
66824;SDS011;53726;54.322;10.134;2023-09-19T07:00:41;14.23;;;2.55;;
66824;SDS011;53726;54.322;10.134;2023-09-19T07:03:08;14.30;;;2.50;;
66824;SDS011;53726;54.322;10.134;2023-09-19T07:05:36;12.30;;;2.20;;
66824;SDS011;53726;54.322;10.134;2023-09-19T07:08:04;11.75;;;2.42;;
66824;SDS011;53726;54.322;10.134;2023-09-19T07:10:35;14.38;;;2.40;;
66824;SDS011;53726;54.322;10.134;2023-09-19T07:13:05;14.68;;;2.13;;
66824;SDS011;53726;54.322;10.134;2023-09-19T07:15:35;12.23;;;1.95;;
66824;SDS011;53726;54.322;10.134;2023-09-19T07:18:04;13.07;;;2.38;;
66824;SDS011;53726;54.322;10.134;2023-09-19T07:20:31;15.73;;;2.10;;
66824;SDS011;53726;54.322;10.134;2023-09-19T07:23:00;13.50;;;2.08;;
66824;SDS011;53726;54.322;10.134;2023-09-19T07:25:29;10.77;;;2.10;;
66824;SDS011;53726;54.322;10.134;2023-09-19T07:27:56;14.80;;;2.00;;
66824;SDS011;53726;54.322;10.134;2023-09-19T07:30:25;9.35;;;1.95;;
66824;SDS011;53726;54.322;10.134;2023-09-19T07:32:51;16.85;;;2.67;;
66824;SDS011;53726;54.322;10.134;2023-09-19T07:35:17;7.40;;;2.25;;
66824;SDS011;53726;54.322;10.134;2023-09-19T07:37:46;6.85;;;2.08;;
66824;SDS011;53726;54.322;10.134;2023-09-19T07:40:17;15.13;;;2.83;;
66824;SDS011;53726;54.322;10.134;2023-09-19T07:42:43;13.77;;;2.95;;
66824;SDS011;53726;54.322;10.134;2023-09-19T07:45:09;8.60;;;2.17;;
66824;SDS011;53726;54.322;10.134;2023-09-19T07:47:40;11.57;;;2.00;;
66824;SDS011;53726;54.322;10.134;2023-09-19T07:50:09;6.90;;;2.05;;
66824;SDS011;53726;54.322;10.134;2023-09-19T07:52:34;10.90;;;1.98;;
66824;SDS011;53726;54.322;10.134;2023-09-19T07:55:00;6.88;;;1.70;;
66824;SDS011;53726;54.322;10.134;2023-09-19T07:57:31;9.25;;;2.08;;
66824;SDS011;53726;54.322;10.134;2023-09-19T07:59:59;5.93;;;1.52;;
66824;SDS011;53726;54.322;10.134;2023-09-19T08:02:25;6.95;;;2.10;;
66824;SDS011;53726;54.322;10.134;2023-09-19T08:04:51;7.35;;;2.97;;
66824;SDS011;53726;54.322;10.134;2023-09-19T08:07:17;8.90;;;2.05;;
66824;SDS011;53726;54.322;10.134;2023-09-19T08:09:43;9.27;;;2.40;;
66824;SDS011;53726;54.322;10.134;2023-09-19T08:12:13;7.82;;;1.88;;
66824;SDS011;53726;54.322;10.134;2023-09-19T08:14:39;6.85;;;1.92;;
66824;SDS011;53726;54.322;10.134;2023-09-19T08:17:08;5.88;;;2.05;;
66824;SDS011;53726;54.322;10.134;2023-09-19T08:19:34;6.93;;;1.85;;
66824;SDS011;53726;54.322;10.134;2023-09-19T08:22:01;6.60;;;2.35;;
66824;SDS011;53726;54.322;10.134;2023-09-19T08:24:28;8.50;;;1.92;;
66824;SDS011;53726;54.322;10.134;2023-09-19T08:26:55;4.80;;;1.70;;
66824;SDS011;53726;54.322;10.134;2023-09-19T08:29:22;5.15;;;1.67;;
66824;SDS011;53726;54.322;10.134;2023-09-19T08:31:55;5.28;;;1.70;;
66824;SDS011;53726;54.322;10.134;2023-09-19T08:34:22;7.70;;;1.70;;
66824;SDS011;53726;54.322;10.134;2023-09-19T08:36:52;5.85;;;1.90;;
66824;SDS011;53726;54.322;10.134;2023-09-19T08:39:22;9.02;;;2.40;;
66824;SDS011;53726;54.322;10.134;2023-09-19T08:41:49;6.05;;;1.75;;
66824;SDS011;53726;54.322;10.134;2023-09-19T08:44:14;7.05;;;1.92;;
66824;SDS011;53726;54.322;10.134;2023-09-19T08:46:41;8.95;;;1.70;;
66824;SDS011;53726;54.322;10.134;2023-09-19T08:49:11;4.43;;;1.73;;
66824;SDS011;53726;54.322;10.134;2023-09-19T08:51:53;3.90;;;1.52;;
66824;SDS011;53726;54.322;10.134;2023-09-19T08:54:26;7.50;;;1.98;;
66824;SDS011;53726;54.322;10.134;2023-09-19T08:56:58;4.20;;;1.42;;
66824;SDS011;53726;54.322;10.134;2023-09-19T08:59:33;5.60;;;1.60;;
66824;SDS011;53726;54.322;10.134;2023-09-19T09:02:00;6.43;;;2.03;;
66824;SDS011;53726;54.322;10.134;2023-09-19T09:04:26;5.82;;;1.67;;
66824;SDS011;53726;54.322;10.134;2023-09-19T09:06:53;3.95;;;1.50;;
66824;SDS011;53726;54.322;10.134;2023-09-19T09:09:20;5.95;;;1.75;;
66824;SDS011;53726;54.322;10.134;2023-09-19T09:11:47;6.68;;;1.67;;
66824;SDS011;53726;54.322;10.134;2023-09-19T09:14:16;5.57;;;2.30;;
66824;SDS011;53726;54.322;10.134;2023-09-19T09:16:42;4.78;;;1.70;;
66824;SDS011;53726;54.322;10.134;2023-09-19T09:19:08;4.80;;;1.58;;
66824;SDS011;53726;54.322;10.134;2023-09-19T09:21:33;4.28;;;1.33;;
66824;SDS011;53726;54.322;10.134;2023-09-19T09:24:26;4.30;;;1.48;;
66824;SDS011;53726;54.322;10.134;2023-09-19T09:26:51;3.50;;;1.35;;
66824;SDS011;53726;54.322;10.134;2023-09-19T09:29:19;5.22;;;1.50;;
66824;SDS011;53726;54.322;10.134;2023-09-19T09:32:20;3.30;;;1.70;;
66824;SDS011;53726;54.322;10.134;2023-09-19T09:34:59;7.88;;;1.67;;
66824;SDS011;53726;54.322;10.134;2023-09-19T09:37:26;6.40;;;2.10;;
66824;SDS011;53726;54.322;10.134;2023-09-19T09:39:59;3.30;;;1.40;;
66824;SDS011;53726;54.322;10.134;2023-09-19T09:42:39;4.30;;;1.67;;
66824;SDS011;53726;54.322;10.134;2023-09-19T09:45:19;4.07;;;1.40;;
66824;SDS011;53726;54.322;10.134;2023-09-19T09:48:00;3.72;;;1.50;;
66824;SDS011;53726;54.322;10.134;2023-09-19T09:50:38;4.75;;;1.65;;
66824;SDS011;53726;54.322;10.134;2023-09-19T09:55:57;5.10;;;1.48;;
66824;SDS011;53726;54.322;10.134;2023-09-19T09:58:27;4.32;;;1.90;;
66824;SDS011;53726;54.322;10.134;2023-09-19T10:00:57;3.63;;;1.10;;
66824;SDS011;53726;54.322;10.134;2023-09-19T10:03:37;6.05;;;2.20;;
66824;SDS011;53726;54.322;10.134;2023-09-19T10:06:08;2.50;;;1.50;;
66824;SDS011;53726;54.322;10.134;2023-09-19T10:11:30;6.70;;;1.40;;
66824;SDS011;53726;54.322;10.134;2023-09-19T10:13:57;2.92;;;1.77;;
66824;SDS011;53726;54.322;10.134;2023-09-19T10:16:29;8.10;;;1.60;;
66824;SDS011;53726;54.322;10.134;2023-09-19T10:18:59;4.85;;;1.55;;
66824;SDS011;53726;54.322;10.134;2023-09-19T10:21:30;3.10;;;1.38;;
66824;SDS011;53726;54.322;10.134;2023-09-19T10:23:59;6.55;;;1.88;;
66824;SDS011;53726;54.322;10.134;2023-09-19T10:26:29;3.47;;;1.50;;
66824;SDS011;53726;54.322;10.134;2023-09-19T10:28:56;4.85;;;1.40;;
66824;SDS011;53726;54.322;10.134;2023-09-19T10:31:25;3.05;;;1.23;;
66824;SDS011;53726;54.322;10.134;2023-09-19T10:33:53;4.45;;;1.58;;
66824;SDS011;53726;54.322;10.134;2023-09-19T10:36:21;3.47;;;1.50;;
66824;SDS011;53726;54.322;10.134;2023-09-19T10:38:50;2.88;;;1.65;;
66824;SDS011;53726;54.322;10.134;2023-09-19T10:41:20;2.20;;;1.10;;
66824;SDS011;53726;54.322;10.134;2023-09-19T10:43:48;3.33;;;1.40;;
66824;SDS011;53726;54.322;10.134;2023-09-19T10:46:16;3.08;;;1.13;;
66824;SDS011;53726;54.322;10.134;2023-09-19T10:48:41;5.78;;;1.45;;
66824;SDS011;53726;54.322;10.134;2023-09-19T10:51:18;2.80;;;1.27;;
66824;SDS011;53726;54.322;10.134;2023-09-19T10:56:26;3.67;;;1.27;;
66824;SDS011;53726;54.322;10.134;2023-09-19T10:59:05;4.20;;;1.80;;
66824;SDS011;53726;54.322;10.134;2023-09-19T11:01:44;2.83;;;1.52;;
66824;SDS011;53726;54.322;10.134;2023-09-19T11:04:20;4.93;;;1.33;;
66824;SDS011;53726;54.322;10.134;2023-09-19T11:07:03;3.90;;;1.33;;
66824;SDS011;53726;54.322;10.134;2023-09-19T11:12:11;2.83;;;1.30;;
66824;SDS011;53726;54.322;10.134;2023-09-19T11:15:01;3.60;;;1.33;;
66824;SDS011;53726;54.322;10.134;2023-09-19T11:17:33;3.47;;;1.40;;
66824;SDS011;53726;54.322;10.134;2023-09-19T11:30:31;5.32;;;1.35;;
66824;SDS011;53726;54.322;10.134;2023-09-19T11:43:50;3.30;;;1.08;;
66824;SDS011;53726;54.322;10.134;2023-09-19T11:49:30;2.10;;;1.20;;
66824;SDS011;53726;54.322;10.134;2023-09-19T11:51:58;2.40;;;1.13;;
66824;SDS011;53726;54.322;10.134;2023-09-19T11:54:33;3.17;;;1.20;;
66824;SDS011;53726;54.322;10.134;2023-09-19T11:57:01;3.42;;;1.30;;
66824;SDS011;53726;54.322;10.134;2023-09-19T11:59:28;3.28;;;1.33;;
66824;SDS011;53726;54.322;10.134;2023-09-19T12:01:56;2.80;;;0.98;;
66824;SDS011;53726;54.322;10.134;2023-09-19T12:04:36;2.40;;;1.30;;
66824;SDS011;53726;54.322;10.134;2023-09-19T12:07:21;3.40;;;1.80;;
66824;SDS011;53726;54.322;10.134;2023-09-19T12:09:48;3.33;;;1.30;;
66824;SDS011;53726;54.322;10.134;2023-09-19T12:12:25;3.47;;;1.45;;
66824;SDS011;53726;54.322;10.134;2023-09-19T12:15:00;3.20;;;1.00;;
66824;SDS011;53726;54.322;10.134;2023-09-19T12:17:38;3.45;;;1.38;;
66824;SDS011;53726;54.322;10.134;2023-09-19T12:20:06;1.67;;;0.93;;
66824;SDS011;53726;54.322;10.134;2023-09-19T12:22:42;3.70;;;1.10;;
66824;SDS011;53726;54.322;10.134;2023-09-19T12:25:09;2.80;;;1.25;;
66824;SDS011;53726;54.322;10.134;2023-09-19T12:27:43;2.70;;;1.20;;
66824;SDS011;53726;54.322;10.134;2023-09-19T12:30:11;3.30;;;1.10;;
66824;SDS011;53726;54.322;10.134;2023-09-19T12:32:43;3.38;;;1.20;;
66824;SDS011;53726;54.322;10.134;2023-09-19T12:35:09;3.10;;;1.48;;
66824;SDS011;53726;54.322;10.134;2023-09-19T12:37:51;2.63;;;1.33;;
66824;SDS011;53726;54.322;10.134;2023-09-19T12:40:20;3.53;;;2.00;;
66824;SDS011;53726;54.322;10.134;2023-09-19T12:42:47;2.08;;;1.00;;
66824;SDS011;53726;54.322;10.134;2023-09-19T12:45:14;3.55;;;1.38;;
66824;SDS011;53726;54.322;10.134;2023-09-19T12:56:09;1.58;;;0.93;;
66824;SDS011;53726;54.322;10.134;2023-09-19T12:58:50;2.80;;;1.27;;
66824;SDS011;53726;54.322;10.134;2023-09-19T13:01:19;4.38;;;1.30;;
66824;SDS011;53726;54.322;10.134;2023-09-19T13:03:45;2.92;;;1.92;;
66824;SDS011;53726;54.322;10.134;2023-09-19T13:06:35;2.30;;;1.30;;
66824;SDS011;53726;54.322;10.134;2023-09-19T13:09:08;1.92;;;1.42;;
66824;SDS011;53726;54.322;10.134;2023-09-19T13:11:37;2.00;;;1.00;;
66824;SDS011;53726;54.322;10.134;2023-09-19T13:16:59;2.30;;;1.10;;
66824;SDS011;53726;54.322;10.134;2023-09-19T13:19:38;2.13;;;1.13;;
66824;SDS011;53726;54.322;10.134;2023-09-19T13:22:50;2.17;;;1.30;;
66824;SDS011;53726;54.322;10.134;2023-09-19T13:25:12;3.75;;;1.13;;
66824;SDS011;53726;54.322;10.134;2023-09-19T13:27:41;1.65;;;1.00;;
66824;SDS011;53726;54.322;10.134;2023-09-19T13:30:07;3.05;;;1.33;;
66824;SDS011;53726;54.322;10.134;2023-09-19T13:32:33;1.95;;;1.13;;
66824;SDS011;53726;54.322;10.134;2023-09-19T13:34:59;4.40;;;1.45;;
66824;SDS011;53726;54.322;10.134;2023-09-19T13:37:25;2.75;;;1.20;;
66824;SDS011;53726;54.322;10.134;2023-09-19T13:39:51;3.38;;;1.02;;
66824;SDS011;53726;54.322;10.134;2023-09-19T13:42:18;2.67;;;1.27;;
66824;SDS011;53726;54.322;10.134;2023-09-19T13:44:46;4.45;;;1.17;;
66824;SDS011;53726;54.322;10.134;2023-09-19T13:47:13;2.78;;;1.30;;
66824;SDS011;53726;54.322;10.134;2023-09-19T13:49:40;2.42;;;1.10;;
66824;SDS011;53726;54.322;10.134;2023-09-19T13:52:06;1.90;;;1.00;;
66824;SDS011;53726;54.322;10.134;2023-09-19T13:54:32;3.13;;;1.00;;
66824;SDS011;53726;54.322;10.134;2023-09-19T13:56:58;1.63;;;1.10;;
66824;SDS011;53726;54.322;10.134;2023-09-19T13:59:24;2.90;;;1.15;;
66824;SDS011;53726;54.322;10.134;2023-09-19T14:01:50;2.55;;;1.00;;
66824;SDS011;53726;54.322;10.134;2023-09-19T14:04:18;3.92;;;1.60;;
66824;SDS011;53726;54.322;10.134;2023-09-19T14:06:45;2.63;;;1.30;;
66824;SDS011;53726;54.322;10.134;2023-09-19T14:09:11;2.67;;;1.13;;
66824;SDS011;53726;54.322;10.134;2023-09-19T14:11:38;4.10;;;1.23;;
66824;SDS011;53726;54.322;10.134;2023-09-19T14:14:04;2.70;;;1.23;;
66824;SDS011;53726;54.322;10.134;2023-09-19T14:16:31;3.75;;;1.20;;
66824;SDS011;53726;54.322;10.134;2023-09-19T14:18:57;3.70;;;1.48;;
66824;SDS011;53726;54.322;10.134;2023-09-19T14:21:25;2.63;;;1.00;;
66824;SDS011;53726;54.322;10.134;2023-09-19T14:23:51;3.42;;;1.58;;
66824;SDS011;53726;54.322;10.134;2023-09-19T14:26:22;2.25;;;1.00;;
66824;SDS011;53726;54.322;10.134;2023-09-19T14:28:48;3.63;;;1.23;;
66824;SDS011;53726;54.322;10.134;2023-09-19T14:31:14;1.73;;;0.88;;
66824;SDS011;53726;54.322;10.134;2023-09-19T14:33:40;3.97;;;1.10;;
66824;SDS011;53726;54.322;10.134;2023-09-19T14:36:07;3.03;;;1.55;;
66824;SDS011;53726;54.322;10.134;2023-09-19T14:38:35;7.22;;;1.15;;
66824;SDS011;53726;54.322;10.134;2023-09-19T14:41:03;2.17;;;0.98;;
66824;SDS011;53726;54.322;10.134;2023-09-19T14:43:32;3.88;;;1.20;;
66824;SDS011;53726;54.322;10.134;2023-09-19T14:46:07;4.57;;;1.27;;
66824;SDS011;53726;54.322;10.134;2023-09-19T14:48:33;3.33;;;0.90;;
66824;SDS011;53726;54.322;10.134;2023-09-19T14:51:06;3.78;;;1.50;;
66824;SDS011;53726;54.322;10.134;2023-09-19T14:53:33;5.03;;;1.50;;
66824;SDS011;53726;54.322;10.134;2023-09-19T14:56:00;3.65;;;1.10;;
66824;SDS011;53726;54.322;10.134;2023-09-19T14:58:30;3.13;;;1.20;;
66824;SDS011;53726;54.322;10.134;2023-09-19T15:01:03;2.95;;;1.40;;
66824;SDS011;53726;54.322;10.134;2023-09-19T15:03:31;3.30;;;1.52;;
66824;SDS011;53726;54.322;10.134;2023-09-19T15:06:01;5.85;;;1.55;;
66824;SDS011;53726;54.322;10.134;2023-09-19T15:08:29;2.47;;;1.08;;
66824;SDS011;53726;54.322;10.134;2023-09-19T15:11:12;4.55;;;1.35;;
66824;SDS011;53726;54.322;10.134;2023-09-19T15:13:45;4.15;;;1.45;;
66824;SDS011;53726;54.322;10.134;2023-09-19T15:16:12;4.40;;;1.35;;
66824;SDS011;53726;54.322;10.134;2023-09-19T15:18:40;3.45;;;1.30;;
66824;SDS011;53726;54.322;10.134;2023-09-19T15:21:07;2.92;;;1.38;;
66824;SDS011;53726;54.322;10.134;2023-09-19T15:23:35;3.40;;;1.27;;
66824;SDS011;53726;54.322;10.134;2023-09-19T15:26:05;2.85;;;1.20;;
66824;SDS011;53726;54.322;10.134;2023-09-19T15:28:45;5.00;;;1.45;;
66824;SDS011;53726;54.322;10.134;2023-09-19T15:31:11;2.90;;;1.27;;
66824;SDS011;53726;54.322;10.134;2023-09-19T15:33:38;2.00;;;1.05;;
66824;SDS011;53726;54.322;10.134;2023-09-19T15:36:05;6.47;;;1.17;;
66824;SDS011;53726;54.322;10.134;2023-09-19T15:38:31;5.28;;;1.33;;
66824;SDS011;53726;54.322;10.134;2023-09-19T15:41:19;3.40;;;1.20;;
66824;SDS011;53726;54.322;10.134;2023-09-19T15:43:46;3.72;;;1.30;;
66824;SDS011;53726;54.322;10.134;2023-09-19T15:46:11;4.40;;;1.27;;
66824;SDS011;53726;54.322;10.134;2023-09-19T15:48:38;3.65;;;1.30;;
66824;SDS011;53726;54.322;10.134;2023-09-19T15:51:04;2.85;;;1.10;;
66824;SDS011;53726;54.322;10.134;2023-09-19T15:53:41;3.58;;;1.40;;
66824;SDS011;53726;54.322;10.134;2023-09-19T15:56:09;1.90;;;1.13;;
66824;SDS011;53726;54.322;10.134;2023-09-19T15:58:36;3.85;;;1.15;;
66824;SDS011;53726;54.322;10.134;2023-09-19T16:01:06;2.35;;;1.10;;